DLH241 EDDH-LKPR
Flight info
| Callsign | DLH241 |
|---|---|
| Flight time | N/A |
| Altitude | 35000 |
| Route | RAMAR6G RAMAR Z998 NUSGU/N0433F330 Z998 OSKAN M748 HDO DCT GOLOP GOLOP4S |
| Aircraft | A320/M-V/N |
Departure
| Time | 2026-04-23 11:42 |
|---|---|
| Airport | Hamburg Helmut Schmidt Airport (EDDH) |
Arrival
| Time | N/A |
|---|---|
| Airport | Václav Havel Airport Prague (LKPR) |
| Time | Latitude | Longitude | Altitude | Speed | Heading |
|---|---|---|---|---|---|
| 2026-04-23 11:21 | 53.62948 | 10.00273 | 50 ft | 0 kts | 123° |
| 2026-04-23 11:35 | 53.62950 | 10.00267 | 50 ft | 2 kts | 123° |
| 2026-04-23 11:35 | 53.62961 | 10.00246 | 50 ft | 3 kts | 139° |
| 2026-04-23 11:36 | 53.62978 | 10.00229 | 50 ft | 3 kts | 162° |
| 2026-04-23 11:36 | 53.62998 | 10.00225 | 50 ft | 3 kts | 185° |
| 2026-04-23 11:36 | 53.63017 | 10.00235 | 50 ft | 3 kts | 206° |
| 2026-04-23 11:36 | 53.63027 | 10.00244 | 50 ft | 0 kts | 213° |
| 2026-04-23 11:39 | 53.63015 | 10.00226 | 50 ft | 3 kts | 230° |
| 2026-04-23 11:39 | 53.62997 | 10.00189 | 50 ft | 7 kts | 224° |
| 2026-04-23 11:39 | 53.62959 | 10.00143 | 50 ft | 7 kts | 211° |
| 2026-04-23 11:40 | 53.62925 | 10.00109 | 50 ft | 6 kts | 210° |
| 2026-04-23 11:40 | 53.62900 | 10.00057 | 50 ft | 5 kts | 267° |
| 2026-04-23 11:40 | 53.62911 | 10.00011 | 50 ft | 6 kts | 291° |
| 2026-04-23 11:40 | 53.62895 | 9.99902 | 50 ft | 12 kts | 246° |
| 2026-04-23 11:41 | 53.62863 | 9.99792 | 50 ft | 8 kts | 252° |
| 2026-04-23 11:41 | 53.62873 | 9.99734 | 50 ft | 4 kts | 327° |
| 2026-04-23 11:41 | 53.62964 | 9.99669 | 50 ft | 33 kts | 331° |
| 2026-04-23 11:41 | 53.63350 | 9.99325 | 50 ft | 92 kts | 333° |
| 2026-04-23 11:42 | 53.64086 | 9.98692 | 68 ft | 143 kts | 329° |
| 2026-04-23 11:42 | 53.64987 | 9.97916 | 648 ft | 148 kts | 329° |
| 2026-04-23 11:42 | 53.65913 | 9.97118 | 1325 ft | 152 kts | 329° |
| 2026-04-23 11:42 | 53.66885 | 9.96274 | 1919 ft | 163 kts | 330° |
| 2026-04-23 11:43 | 53.67923 | 9.95351 | 2497 ft | 175 kts | 330° |